Hlavní strana
METAR-TAF:

METAR-TAF

Letiště :

Yorkton, Saskatchewan, Kanada

zeměpisná šířka: 51-16N, zeměpisná délka: 102-28W, výška: 498 m

Aktuální stav počasí

Zpráva byla vytvořena před 1 hodinou a 7 minutami, v 06:00 UTC
Jihojihozápadní vítr 5 kt
Teplota 11°C
Vlhkost vzduchu 71%
Tlak 1023 hPa
Viditelnost: 14.5 km
Jasno

METAR: CYQV 200600Z AUTO 20005KT 9SM CLR 11/06 A3021 RMK SLP240

Čas: 01:07 (07:07 UTC)

Předpověď počasí

Zpráva byla vytvořena před 7 hodinami a 29 minutami, v 23:38 UTC
Předpověď platná od 20 v 00 UTC do 20 v 06 UTC
Severoseverozápadní vítr 10 kt
Viditelnost: 10 km
Polojasno ve výšce 8000 ft
Změna
od 20 v 03 UTC do 20 v 05 UTC
vítr z různých směrů 3 kt

TAF: CYQV 192338Z 2000/2006 33010KT P6SM SCT080 BECMG 2003/2005 VRB03KT RMK FCST BASED ON AUTO OBS. NXT FCST WILL BE ISSUED AT 201145Z

Stav a předpovědi počasí z více než 4 000 letišť (zprávy METAR a TAF).

Červené a žluté tečky na mapě představují dostupné meteorologické stanice.

Když kurzor umístíte na tečku, zobrazí se název stanice.

Pak kliknutím zobrazíte stav a předpověď počasí.

Chcete-li změnit mapu, kliknutím na zelené tlačítko se znaménkem +mapu přiblížíte, kliknutím na zelené tlačítko se znaménkem – mapu oddálíte a kliknutím na zelené šipky přejdete na sousední mapy.


METAR-TAF: